createdAt,value
2022-11-16T00:01:24.632Z,36.78
2022-11-16T00:04:01.696Z,34.78
2022-11-16T00:06:35.519Z,38.08
2022-11-16T00:09:27.311Z,41.13
2022-11-16T00:12:03.091Z,42.42
2022-11-16T00:14:38.332Z,43.55
2022-11-16T00:17:11.948Z,41.78
2022-11-16T00:19:45.583Z,48.10
2022-11-16T00:22:19.310Z,39.38
2022-11-16T00:24:52.966Z,42.33
2022-11-16T00:27:26.618Z,37.42
2022-11-16T00:30:01.926Z,41.40
2022-11-16T00:32:35.611Z,38.75
2022-11-16T00:35:13.142Z,38.95
2022-11-16T00:37:46.813Z,41.28
2022-11-16T00:40:20.969Z,38.45
2022-11-16T00:42:54.714Z,41.58
2022-11-16T00:48:09.864Z,39.50
2022-11-16T00:50:45.385Z,34.15
2022-11-16T00:53:21.666Z,34.05
2022-11-16T00:55:55.601Z,38.17
2022-11-16T00:58:29.317Z,35.47
2022-11-16T01:01:11.316Z,38.95
2022-11-16T01:03:45.138Z,33.85
2022-11-16T01:06:18.953Z,31.30
2022-11-16T01:08:52.988Z,33.65
2022-11-16T01:11:43.996Z,33.08
2022-11-16T01:14:17.591Z,29.92
2022-11-16T01:16:52.773Z,27.08
2022-11-16T01:19:27.097Z,28.25
2022-11-16T01:22:01.033Z,33.50
2022-11-16T01:24:35.013Z,29.08
2022-11-16T01:27:08.767Z,36.20
2022-11-16T01:29:45.798Z,28.00
2022-11-16T01:32:21.533Z,28.48
2022-11-16T01:34:55.225Z,33.97
2022-11-16T01:37:33.795Z,32.92
2022-11-16T01:40:08.863Z,31.08
2022-11-16T01:42:45.859Z,24.80
2022-11-16T01:45:24.983Z,30.55
2022-11-16T01:48:03.148Z,26.70
2022-11-16T01:50:40.575Z,26.35
2022-11-16T01:53:15.164Z,30.13
2022-11-16T01:55:56.450Z,28.73
2022-11-16T01:58:35.202Z,30.33
2022-11-16T02:01:20.198Z,29.65
2022-11-16T02:04:01.824Z,28.77
2022-11-16T02:06:54.226Z,28.13
2022-11-16T02:09:54.468Z,32.72
2022-11-16T02:12:58.805Z,27.80
2022-11-16T02:15:46.473Z,29.83
2022-11-16T02:21:28.374Z,30.80
2022-11-16T02:24:43.629Z,29.40
2022-11-16T02:27:54.239Z,29.65
2022-11-16T02:30:30.959Z,31.52
2022-11-16T02:33:13.314Z,26.58
2022-11-16T02:35:50.549Z,30.27
2022-11-16T02:38:28.555Z,28.98
2022-11-16T02:41:08.338Z,28.52
2022-11-16T02:43:46.275Z,28.02
2022-11-16T02:46:24.614Z,24.88
2022-11-16T02:49:03.554Z,28.08
2022-11-16T02:51:40.181Z,28.70
2022-11-16T02:54:17.665Z,28.05
2022-11-16T02:56:57.657Z,30.17
2022-11-16T02:59:40.871Z,29.88
2022-11-16T03:02:24.453Z,26.58
2022-11-16T03:05:03.819Z,32.22
2022-11-16T03:07:47.935Z,29.15
2022-11-16T03:10:36.692Z,26.60
2022-11-16T03:13:17.357Z,26.42
2022-11-16T03:15:52.446Z,26.77
2022-11-16T03:18:30.641Z,28.42
2022-11-16T03:21:12.842Z,22.05
2022-11-16T03:23:48.193Z,27.83
2022-11-16T03:26:25.676Z,27.85
2022-11-16T03:29:04.345Z,26.40
2022-11-16T03:31:44.878Z,30.08
2022-11-16T03:34:27.275Z,25.02
2022-11-16T03:37:03.331Z,25.50
2022-11-16T03:39:40.551Z,24.77
2022-11-16T03:45:13.618Z,27.45
2022-11-16T03:47:48.510Z,22.90
2022-11-16T03:52:57.948Z,29.35
2022-11-16T03:55:31.490Z,24.10
2022-11-16T03:58:06.025Z,22.58
2022-11-16T04:00:40.272Z,25.23
2022-11-16T04:03:16.831Z,24.23
2022-11-16T04:06:09.171Z,24.75
2022-11-16T04:09:00.689Z,23.02
2022-11-16T04:11:54.794Z,24.88
2022-11-16T04:14:47.439Z,24.42
2022-11-16T04:17:43.321Z,25.63
2022-11-16T04:20:35.797Z,22.42
2022-11-16T04:23:33.272Z,21.02
2022-11-16T04:26:09.698Z,21.08
2022-11-16T04:28:42.499Z,19.05
2022-11-16T04:31:33.338Z,24.88
2022-11-16T04:34:28.578Z,17.38
2022-11-16T04:37:22.307Z,18.13
2022-11-16T04:39:57.281Z,18.70
2022-11-16T04:42:30.895Z,18.48
2022-11-16T04:45:21.835Z,17.67
2022-11-16T04:47:58.774Z,15.93
2022-11-16T04:50:37.170Z,18.30
2022-11-16T04:53:11.088Z,17.13
2022-11-16T04:55:56.645Z,23.42
2022-11-16T04:58:33.780Z,19.25
2022-11-16T05:01:07.659Z,21.55
2022-11-16T05:03:41.379Z,19.60
2022-11-16T05:06:14.918Z,19.50
2022-11-16T05:08:48.986Z,19.02
2022-11-16T05:11:24.019Z,17.42
2022-11-16T05:13:58.139Z,18.80
2022-11-16T05:16:31.802Z,19.23
2022-11-16T05:19:25.211Z,23.20
2022-11-16T05:21:58.945Z,20.57
2022-11-16T05:24:35.470Z,17.92
2022-11-16T05:27:14.773Z,18.35
2022-11-16T05:29:49.700Z,20.98
2022-11-16T05:32:26.371Z,19.75
2022-11-16T05:35:03.956Z,20.63
2022-11-16T05:37:39.021Z,19.65
2022-11-16T05:40:13.576Z,18.30
2022-11-16T05:42:54.798Z,19.02
2022-11-16T05:45:28.498Z,17.83
2022-11-16T05:48:03.180Z,18.30
2022-11-16T05:50:42.549Z,15.85
2022-11-16T05:53:23.246Z,16.50
2022-11-16T05:55:56.983Z,19.25
2022-11-16T05:58:33.000Z,19.95
2022-11-16T06:01:07.559Z,16.05
2022-11-16T06:06:17.554Z,17.83
2022-11-16T06:08:51.143Z,18.45
2022-11-16T06:11:35.363Z,15.10
2022-11-16T06:14:11.407Z,17.50
2022-11-16T06:16:45.806Z,18.50
2022-11-16T06:19:19.310Z,22.50
2022-11-16T06:21:52.905Z,18.90
2022-11-16T06:24:30.977Z,25.88
2022-11-16T06:27:05.444Z,20.50
2022-11-16T06:29:43.644Z,23.50
2022-11-16T06:32:17.230Z,28.25
2022-11-16T06:34:50.870Z,25.35
2022-11-16T06:37:24.682Z,25.55
2022-11-16T06:39:58.343Z,22.52
2022-11-16T06:42:31.917Z,25.40
2022-11-16T06:45:08.859Z,21.98
2022-11-16T06:47:46.658Z,22.95
2022-11-16T06:50:20.667Z,25.40
2022-11-16T06:52:55.214Z,27.55
2022-11-16T06:55:30.198Z,27.58
2022-11-16T06:58:04.321Z,29.98
2022-11-16T07:00:39.975Z,27.27
2022-11-16T07:03:15.265Z,28.27
2022-11-16T07:05:49.955Z,28.45
2022-11-16T07:08:24.466Z,25.50
2022-11-16T07:11:03.925Z,31.58
2022-11-16T07:13:40.558Z,33.60
2022-11-16T07:16:16.924Z,28.38
2022-11-16T07:18:57.959Z,24.13
2022-11-16T07:21:32.505Z,26.55
2022-11-16T07:24:08.863Z,27.25
2022-11-16T07:26:42.249Z,21.73
2022-11-16T07:29:21.683Z,26.70
2022-11-16T07:32:16.138Z,26.75
2022-11-16T07:35:16.128Z,22.08
2022-11-16T07:37:49.664Z,23.20
2022-11-16T07:40:23.175Z,18.75
2022-11-16T07:42:59.099Z,26.60
2022-11-16T07:46:45.166Z,24.02
2022-11-16T07:49:00.217Z,23.08
2022-11-16T07:51:52.841Z,21.67
2022-11-16T07:54:46.635Z,24.52
2022-11-16T07:57:26.104Z,19.35
2022-11-16T08:00:01.975Z,22.48
2022-11-16T08:02:49.974Z,20.45
2022-11-16T08:05:28.998Z,18.17
2022-11-16T08:08:02.562Z,20.88
2022-11-16T08:10:37.697Z,19.50
2022-11-16T08:13:11.519Z,19.15
2022-11-16T08:15:45.697Z,17.42
2022-11-16T08:18:20.141Z,18.85
2022-11-16T08:20:55.312Z,20.77
2022-11-16T08:23:29.891Z,21.35
2022-11-16T08:26:06.259Z,20.88
2022-11-16T08:28:40.038Z,19.27
2022-11-16T08:31:16.419Z,16.10
2022-11-16T08:33:53.046Z,19.00
2022-11-16T08:36:28.473Z,22.83
2022-11-16T08:39:03.326Z,20.33
2022-11-16T08:41:42.342Z,17.40
2022-11-16T08:44:16.771Z,18.88
2022-11-16T08:46:53.049Z,16.50
2022-11-16T08:52:12.369Z,14.02
2022-11-16T08:54:46.035Z,15.90
2022-11-16T08:57:19.678Z,18.48
2022-11-16T08:59:58.150Z,17.50
2022-11-16T09:02:31.733Z,22.27
2022-11-16T09:05:05.806Z,15.43
2022-11-16T09:07:42.097Z,16.77
2022-11-16T09:10:15.756Z,15.98
2022-11-16T09:12:52.066Z,16.60
2022-11-16T09:15:25.477Z,20.20
2022-11-16T09:17:59.312Z,20.90
2022-11-16T09:20:32.882Z,15.95
2022-11-16T09:23:07.700Z,19.77
2022-11-16T09:25:41.128Z,17.63
2022-11-16T09:28:14.552Z,18.48
2022-11-16T09:30:50.251Z,17.38
2022-11-16T09:33:23.849Z,16.63
2022-11-16T09:36:01.980Z,19.23
2022-11-16T09:41:54.794Z,17.70
2022-11-16T09:44:58.973Z,20.08
2022-11-16T09:47:42.233Z,20.08
2022-11-16T09:50:43.258Z,19.33
2022-11-16T09:53:26.988Z,22.02
2022-11-16T09:56:05.605Z,16.52
2022-11-16T09:58:51.323Z,19.02
2022-11-16T10:01:32.418Z,17.27
2022-11-16T10:04:12.552Z,17.52
2022-11-16T10:07:14.561Z,17.52
2022-11-16T10:09:57.843Z,14.18
2022-11-16T10:12:43.743Z,15.83
2022-11-16T10:15:52.136Z,16.58
2022-11-16T10:18:39.938Z,11.98
2022-11-16T10:21:27.811Z,10.93
2022-11-16T10:24:26.649Z,18.50
2022-11-16T10:27:22.977Z,16.35
2022-11-16T10:30:09.337Z,17.83
2022-11-16T10:32:49.079Z,15.40
2022-11-16T10:35:28.711Z,14.73
2022-11-16T10:38:04.142Z,15.13
2022-11-16T10:40:39.241Z,13.30
2022-11-16T10:43:15.714Z,14.40
2022-11-16T10:45:56.103Z,13.93
2022-11-16T10:48:39.878Z,14.82
2022-11-16T10:51:13.590Z,11.50
2022-11-16T10:53:47.452Z,9.82
2022-11-16T10:58:59.717Z,13.32
2022-11-16T11:01:40.338Z,9.77
2022-11-16T11:04:26.514Z,9.75
2022-11-16T11:07:03.181Z,10.75
2022-11-16T11:09:38.336Z,11.57
2022-11-16T11:12:34.868Z,13.25
2022-11-16T11:15:27.086Z,12.57
2022-11-16T11:18:20.385Z,15.07
2022-11-16T11:21:08.058Z,10.85
2022-11-16T11:23:45.557Z,9.65
2022-11-16T11:26:43.164Z,9.63
2022-11-16T11:29:27.510Z,11.00
2022-11-16T11:32:06.559Z,11.73
2022-11-16T11:34:45.314Z,8.80
2022-11-16T11:37:25.987Z,9.57
2022-11-16T11:40:23.053Z,10.63
2022-11-16T11:42:59.547Z,16.98
2022-11-16T11:45:43.260Z,7.28
2022-11-16T11:48:33.419Z,7.47
2022-11-16T11:51:16.412Z,7.75
2022-11-16T11:53:57.123Z,15.05
2022-11-16T11:56:34.403Z,10.25
2022-11-16T11:59:07.977Z,6.57
2022-11-16T12:02:16.736Z,8.50
2022-11-16T12:05:35.067Z,6.45
2022-11-16T12:08:23.959Z,8.20
2022-11-16T12:11:03.206Z,8.35
2022-11-16T12:13:56.244Z,9.85
2022-11-16T12:16:39.046Z,10.52
2022-11-16T12:19:34.729Z,9.90
2022-11-16T12:22:22.810Z,10.30
2022-11-16T12:25:08.957Z,12.45
2022-11-16T12:27:50.901Z,12.40
2022-11-16T12:30:25.760Z,12.05
2022-11-16T12:33:16.141Z,10.95
2022-11-16T12:36:01.017Z,13.40
2022-11-16T12:38:48.854Z,9.63
2022-11-16T12:42:03.528Z,11.27
2022-11-16T12:44:56.025Z,10.82
2022-11-16T12:47:44.644Z,12.05
2022-11-16T12:50:35.510Z,13.18
2022-11-16T12:53:23.048Z,12.05
2022-11-16T12:56:04.831Z,12.90
2022-11-16T12:58:57.109Z,14.18
2022-11-16T13:01:38.115Z,9.73
2022-11-16T13:04:19.760Z,11.98
2022-11-16T13:06:59.048Z,12.75
2022-11-16T13:09:37.912Z,12.65
2022-11-16T13:12:17.304Z,10.18
2022-11-16T13:14:56.276Z,8.27
2022-11-16T13:17:33.719Z,9.77
2022-11-16T13:20:28.583Z,9.50
2022-11-16T13:23:07.534Z,9.77
2022-11-16T13:25:50.225Z,9.90
2022-11-16T13:28:33.640Z,13.95
2022-11-16T13:34:09.785Z,11.52
2022-11-16T13:36:45.489Z,15.25
2022-11-16T13:39:22.523Z,14.45
2022-11-16T13:42:08.816Z,13.10
2022-11-16T13:44:45.202Z,13.18
2022-11-16T13:47:30.509Z,13.00
2022-11-16T13:50:08.222Z,11.68
2022-11-16T13:53:36.414Z,12.48
2022-11-16T13:55:42.913Z,13.98
2022-11-16T13:58:23.535Z,12.80
2022-11-16T14:01:06.099Z,12.55
2022-11-16T14:03:41.521Z,16.20
2022-11-16T14:07:03.139Z,8.23
2022-11-16T14:09:49.047Z,6.38
2022-11-16T14:12:59.191Z,7.65
2022-11-16T14:15:36.841Z,6.00
2022-11-16T14:18:35.309Z,5.90
2022-11-16T14:21:26.784Z,4.43
2022-11-16T14:24:25.812Z,4.57
2022-11-16T14:27:08.373Z,6.70
2022-11-16T14:29:57.465Z,4.95
2022-11-16T14:32:38.303Z,5.05
2022-11-16T14:35:29.398Z,4.63
2022-11-16T14:38:05.834Z,4.85
2022-11-16T14:40:48.097Z,5.93
2022-11-16T14:43:27.970Z,5.15
2022-11-16T14:46:05.659Z,6.80
2022-11-16T14:48:45.876Z,12.65
2022-11-16T14:51:24.366Z,8.35
2022-11-16T14:54:02.122Z,7.55
2022-11-16T14:56:36.956Z,7.10
2022-11-16T14:59:18.849Z,7.38
2022-11-16T15:01:52.816Z,8.50
2022-11-16T15:04:30.635Z,8.00
2022-11-16T15:07:06.324Z,6.75
2022-11-16T15:09:42.762Z,9.13
2022-11-16T15:12:36.953Z,13.07
2022-11-16T15:15:20.387Z,14.13
2022-11-16T15:18:08.442Z,8.77
2022-11-16T15:20:57.639Z,8.95
2022-11-16T15:23:34.260Z,8.65
2022-11-16T15:26:08.963Z,9.40
2022-11-16T15:28:49.782Z,10.15
2022-11-16T15:31:26.972Z,11.55
2022-11-16T15:34:00.660Z,10.23
2022-11-16T15:36:40.363Z,10.00
2022-11-16T15:39:18.001Z,10.18
2022-11-16T15:41:52.830Z,9.35
2022-11-16T15:47:17.499Z,13.60
2022-11-16T15:49:55.540Z,11.32
2022-11-16T15:52:50.361Z,8.98
2022-11-16T15:55:35.467Z,10.18
2022-11-16T15:58:22.491Z,12.65
2022-11-16T16:00:56.699Z,12.45
2022-11-16T16:03:36.365Z,12.20
2022-11-16T16:06:15.881Z,10.80
2022-11-16T16:09:05.699Z,11.40
2022-11-16T16:11:42.151Z,10.60
2022-11-16T16:14:24.982Z,13.98
2022-11-16T16:16:59.299Z,10.80
2022-11-16T16:19:37.183Z,11.43
2022-11-16T16:22:40.549Z,13.68
2022-11-16T16:25:30.727Z,14.35
2022-11-16T16:30:39.567Z,13.00
2022-11-16T16:33:22.042Z,13.23
2022-11-16T16:35:57.116Z,15.63
2022-11-16T16:38:30.950Z,15.55
2022-11-16T16:43:38.804Z,16.63
2022-11-16T16:46:13.399Z,15.85
2022-11-16T16:48:46.846Z,16.30
2022-11-16T16:51:22.923Z,14.98
2022-11-16T16:53:56.390Z,15.80
2022-11-16T16:56:29.867Z,15.02
2022-11-16T16:59:03.323Z,15.57
2022-11-16T17:01:39.581Z,23.48
2022-11-16T17:04:13.101Z,14.48
2022-11-16T17:06:48.181Z,15.82
2022-11-16T17:09:22.075Z,17.70
2022-11-16T17:11:55.533Z,17.52
2022-11-16T17:14:28.982Z,17.48
2022-11-16T17:17:02.409Z,20.17
2022-11-16T17:19:35.830Z,19.15
2022-11-16T17:22:10.738Z,21.02
2022-11-16T17:24:44.392Z,17.88
2022-11-16T17:27:17.774Z,21.35
2022-11-16T17:29:52.188Z,18.50
2022-11-16T17:32:32.162Z,18.42
2022-11-16T17:35:05.944Z,15.00
2022-11-16T17:37:41.861Z,17.35
2022-11-16T17:40:18.390Z,18.42
2022-11-16T17:42:52.189Z,16.90
2022-11-16T17:45:25.741Z,18.17
2022-11-16T17:47:59.110Z,16.83
2022-11-16T17:50:32.494Z,17.23
2022-11-16T17:53:07.545Z,16.58
2022-11-16T17:55:40.934Z,19.75
2022-11-16T17:58:14.315Z,17.77
2022-11-16T18:00:49.158Z,16.00
2022-11-16T18:03:24.290Z,16.30
2022-11-16T18:06:03.768Z,16.27
2022-11-16T18:08:38.951Z,20.15
2022-11-16T18:11:14.719Z,15.57
2022-11-16T18:13:49.044Z,17.65
2022-11-16T18:16:25.250Z,19.20
2022-11-16T18:19:03.218Z,19.83
2022-11-16T18:21:41.260Z,16.17
2022-11-16T18:24:16.276Z,16.77
2022-11-16T18:26:49.764Z,18.17
2022-11-16T18:29:23.224Z,19.48
2022-11-16T18:31:56.662Z,16.27
2022-11-16T18:34:30.113Z,17.52
2022-11-16T18:37:04.267Z,18.70
2022-11-16T18:39:39.111Z,19.10
2022-11-16T18:42:13.517Z,19.13
2022-11-16T18:44:50.333Z,20.73
2022-11-16T18:47:23.916Z,17.77
2022-11-16T18:49:57.365Z,18.08
2022-11-16T18:52:31.415Z,19.27
2022-11-16T18:55:12.601Z,19.42
2022-11-16T18:57:46.018Z,16.33
2022-11-16T19:00:20.518Z,18.17
2022-11-16T19:02:53.885Z,18.02
2022-11-16T19:05:27.395Z,16.67
2022-11-16T19:08:00.859Z,16.42
2022-11-16T19:10:41.428Z,15.00
2022-11-16T19:13:14.989Z,17.25
2022-11-16T19:15:50.282Z,16.73
2022-11-16T19:18:23.807Z,16.30
2022-11-16T19:23:38.951Z,14.30
2022-11-16T19:26:15.062Z,15.45
2022-11-16T19:28:50.582Z,18.38
2022-11-16T19:31:25.875Z,15.65
2022-11-16T19:34:01.979Z,14.45
2022-11-16T19:36:38.023Z,13.02
2022-11-16T19:39:11.460Z,15.95
2022-11-16T19:41:46.328Z,13.27
2022-11-16T19:44:20.182Z,10.52
2022-11-16T19:49:28.008Z,11.55
2022-11-16T19:52:02.152Z,9.93
2022-11-16T19:54:35.582Z,12.27
2022-11-16T19:57:10.412Z,11.50
2022-11-16T19:59:44.023Z,11.07
2022-11-16T20:02:18.224Z,10.82
2022-11-16T20:04:52.688Z,14.25
2022-11-16T20:07:26.643Z,11.88
2022-11-16T20:12:34.769Z,12.30
2022-11-16T20:15:08.751Z,11.07
2022-11-16T20:20:16.010Z,11.50
2022-11-16T20:22:50.839Z,12.43
2022-11-16T20:25:24.228Z,16.23
2022-11-16T20:27:59.045Z,12.45
2022-11-16T20:30:32.594Z,11.50
2022-11-16T20:33:06.087Z,15.93
2022-11-16T20:35:41.997Z,14.15
2022-11-16T20:38:15.538Z,13.50
2022-11-16T20:40:48.928Z,15.95
2022-11-16T20:43:23.856Z,18.75
2022-11-16T20:45:57.239Z,16.13
2022-11-16T20:48:30.691Z,14.85
2022-11-16T20:51:04.836Z,14.00
2022-11-16T20:53:38.713Z,11.77
2022-11-16T20:58:53.224Z,9.82
2022-11-16T21:01:31.920Z,12.68
2022-11-16T21:04:07.776Z,12.18
2022-11-16T21:06:41.380Z,11.75
2022-11-16T21:09:23.506Z,13.25
2022-11-16T21:12:14.646Z,16.10
2022-11-16T21:14:49.633Z,12.50
2022-11-16T21:17:23.125Z,12.90
2022-11-16T21:20:25.273Z,19.20
2022-11-16T21:22:50.021Z,14.27
2022-11-16T21:25:23.571Z,14.02
2022-11-16T21:27:57.210Z,13.57
2022-11-16T21:30:32.138Z,14.02
2022-11-16T21:33:05.744Z,13.65
2022-11-16T21:35:41.069Z,16.38
2022-11-16T21:38:14.500Z,12.13
2022-11-16T21:40:48.028Z,15.13
2022-11-16T21:43:21.554Z,13.57
2022-11-16T21:46:02.945Z,15.20
2022-11-16T21:48:39.049Z,18.42
2022-11-16T21:51:14.248Z,14.23
2022-11-16T21:53:48.228Z,14.88
2022-11-16T21:58:55.982Z,15.23
2022-11-16T22:04:41.539Z,13.32
2022-11-16T22:07:37.162Z,12.68
2022-11-16T22:10:12.152Z,14.55
2022-11-16T22:12:46.010Z,18.13
2022-11-16T22:15:19.760Z,15.57
2022-11-16T22:17:57.266Z,15.05
2022-11-16T22:20:30.766Z,16.55
2022-11-16T22:23:04.375Z,16.00
2022-11-16T22:25:38.389Z,14.50
2022-11-16T22:31:01.166Z,13.85
2022-11-16T22:33:36.638Z,13.18
2022-11-16T22:36:11.498Z,15.25
2022-11-16T22:38:45.071Z,15.82
2022-11-16T22:41:18.607Z,13.73
2022-11-16T22:43:52.407Z,17.77
2022-11-16T22:49:02.668Z,15.65
2022-11-16T22:51:36.196Z,15.27
2022-11-16T22:54:12.896Z,13.07
2022-11-16T22:56:48.563Z,15.88
2022-11-16T22:59:22.020Z,14.60
2022-11-16T23:01:55.457Z,13.10
2022-11-16T23:04:30.467Z,14.27
2022-11-16T23:07:04.101Z,14.55
2022-11-16T23:09:37.839Z,16.55
2022-11-16T23:12:31.538Z,14.15
2022-11-16T23:15:23.122Z,16.77
2022-11-16T23:17:56.787Z,15.27
2022-11-16T23:20:48.944Z,15.43
2022-11-16T23:23:40.339Z,17.55
2022-11-16T23:26:34.028Z,17.23
2022-11-16T23:29:10.658Z,14.73
2022-11-16T23:31:44.401Z,13.90
2022-11-16T23:34:18.269Z,16.23
2022-11-16T23:36:53.545Z,16.23
2022-11-16T23:39:32.438Z,18.85
2022-11-16T23:42:23.508Z,19.27
2022-11-16T23:44:57.096Z,16.52
2022-11-16T23:47:30.817Z,15.82
2022-11-16T23:50:04.696Z,16.90
2022-11-16T23:52:39.774Z,17.05
2022-11-16T23:55:13.428Z,17.02
2022-11-16T23:57:47.130Z,15.73
